Carbondale, CO (81623)

5:34 AM MST on December 06, 2016 (GMT -0700)
Spring Park Ridge | | Change Station
Active Advisory: Winter Weather Advisory

Elev 7628 ft 39.45 °N, 107.12 °W | Updated 44 seconds ago

Mostly Cloudy
Mostly Cloudy
12.9 °F
Feels Like 13 °F
N
0.0
Wind Variable Wind from ESE
Gusts 0.0 mph

Today
High -- | Low -- °F
--% Chance of Precip.
Yesterday
High -- | Low -- °F
Precip. -- in
Pressure 29.89 in
Visibility 10.0 miles
Clouds Mostly Cloudy 7500 ft
Windchill 13 °F
Dew Point 5 °F
Humidity 71%
Rainfall 0.00 in
Snow Depth Not available.
7:15 AM 4:45 PM
Waxing Crescent, 41% visible
METAR KASE 061153Z AUTO 00000KT 10SM BKN075 M12/M15 A2983 RMK AO2 SLP121 T11171150 11083 21117 56012 TSNO
Pressure 29.89 in
Visibility 10.0 miles
Clouds Mostly Cloudy 7500 ft
Windchill 13 °F
Dew Point 5 °F
Humidity 71%
Rainfall 0.00 in
Snow Depth Not available.
7:15 AM 4:45 PM
Waxing Crescent, 41% visible
METAR KASE 061153Z AUTO 00000KT 10SM BKN075 M12/M15 A2983 RMK AO2 SLP121 T11171150 11083 21117 56012 TSNO

10-Day Weather Forecast

Almanac

Astronomy

Dec. 06, 2016 Rise Set
Actual Time
Civil Twilight
Nautical Twilight
Astronomical Twilight
Moon
Length of Visible Light
Length of Day
Tomorrow will be .
, % of the Moon is Illuminated

Today's Extremes

State Highs State Lows

Community

WunderPhotos

Upload Photos

1,955,936 photos uploaded!

WunderBlog® & News

Nearby

Air Quality

  Air Quality AQ Index Pollutant
Not available.

Snow Depth

Station Depth Elevation

Earthquake Activity

City Distance Mag. Time & Date
Minimum magnitude displayed is 2.5.

Coastal Water Temperatures

Place Temperature

Stations

Nearby Weather Stations

Station Location Temp. Windchill Dew Point Humidity Wind Precip. Elev Updated Type
                   

Watches & Warnings

Winter Weather Advisory
Issued: 11:36 PM MST Dec. 5, 2016 – National Weather Service

... Winter Weather Advisory remains in effect from 3 PM Tuesday to
6 am MST Wednesday...

* locations include the cities of... Eagle... Edwards... Glenwood
Springs... Carbondale... Basalt.

* Timing... snow will develop Tuesday afternoon and continue
through Tuesday night.

* Snow accumulation... 2 to 4 inches.

* Winds... west 5 to 10 mph with gusts to 25 mph.

* Impacts... low visibility in periods of snow and blowing snow
will make travel difficult with hazardous conditions expected
over Interstate 70 east of Glenwood Springs Tuesday afternoon
and evening.

Precautionary/preparedness actions...

A Winter Weather Advisory means that periods of snow and/or
blowing snow will cause travel difficulties. Be prepared for
slippery roads and limited visibilities... and use caution while
driving.